createdAt,value
2022-11-07T00:00:36.664Z,11.32
2022-11-07T00:03:40.597Z,11.23
2022-11-07T00:06:43.417Z,11.16
2022-11-07T00:09:45.956Z,11.17
2022-11-07T00:12:48.502Z,11.10
2022-11-07T00:15:51.148Z,11.10
2022-11-07T00:18:55.226Z,11.17
2022-11-07T00:21:57.834Z,11.26
2022-11-07T00:25:00.388Z,11.35
2022-11-07T00:28:03.006Z,11.40
2022-11-07T00:31:06.632Z,11.46
2022-11-07T00:34:10.461Z,11.51
2022-11-07T00:37:13.200Z,11.49
2022-11-07T00:40:15.907Z,11.46
2022-11-07T00:43:18.596Z,11.50
2022-11-07T00:46:21.709Z,11.65
2022-11-07T00:49:25.797Z,11.79
2022-11-07T00:52:28.461Z,11.91
2022-11-07T00:55:32.910Z,11.90
2022-11-07T00:58:36.163Z,11.91
2022-11-07T01:01:38.889Z,12.03
2022-11-07T01:04:56.884Z,11.93
2022-11-07T01:07:59.483Z,11.68
2022-11-07T01:11:06.171Z,11.54
2022-11-07T01:14:09.588Z,11.39
2022-11-07T01:17:12.124Z,11.33
2022-11-07T01:20:16.064Z,11.22
2022-11-07T01:23:18.941Z,11.16
2022-11-07T01:26:21.551Z,11.12
2022-11-07T01:29:24.179Z,11.25
2022-11-07T01:32:26.757Z,11.35
2022-11-07T01:35:30.743Z,11.36
2022-11-07T01:38:33.328Z,11.22
2022-11-07T01:41:37.833Z,11.21
2022-11-07T01:44:57.020Z,11.15
2022-11-07T01:48:02.749Z,11.11
2022-11-07T01:51:07.683Z,11.03
2022-11-07T01:54:11.044Z,11.06
2022-11-07T01:57:17.681Z,11.17
2022-11-07T02:00:22.213Z,11.28
2022-11-07T02:03:25.162Z,11.39
2022-11-07T02:06:34.600Z,11.52
2022-11-07T02:09:37.418Z,11.58
2022-11-07T02:12:40.130Z,11.52
2022-11-07T02:15:42.655Z,11.45
2022-11-07T02:18:46.440Z,11.55
2022-11-07T02:21:55.239Z,11.70
2022-11-07T02:25:02.415Z,11.69
2022-11-07T02:28:07.455Z,11.79
2022-11-07T02:31:10.087Z,11.84
2022-11-07T02:34:12.708Z,11.94
2022-11-07T02:37:22.031Z,12.04
2022-11-07T02:40:26.596Z,12.15
2022-11-07T02:43:30.413Z,12.16
2022-11-07T02:46:33.558Z,12.17
2022-11-07T02:49:36.095Z,12.17
2022-11-07T02:52:38.674Z,12.25
2022-11-07T02:55:42.719Z,12.33
2022-11-07T02:58:45.539Z,12.31
2022-11-07T03:01:48.393Z,12.33
2022-11-07T03:04:51.418Z,12.42
2022-11-07T03:07:54.012Z,12.40
2022-11-07T03:10:58.120Z,12.43
2022-11-07T03:14:00.707Z,12.49
2022-11-07T03:17:03.433Z,12.51
2022-11-07T03:20:07.311Z,12.58
2022-11-07T03:23:09.862Z,12.51
2022-11-07T03:26:13.777Z,12.61
2022-11-07T03:29:16.849Z,12.59
2022-11-07T03:32:19.496Z,12.65
2022-11-07T03:35:22.479Z,12.66
2022-11-07T03:38:25.036Z,12.62
2022-11-07T03:41:29.148Z,12.62
2022-11-07T03:44:31.787Z,12.66
2022-11-07T03:47:34.875Z,12.72
2022-11-07T03:50:37.583Z,12.68
2022-11-07T03:53:40.251Z,12.77
2022-11-07T03:56:44.214Z,12.70
2022-11-07T03:59:46.860Z,12.73
2022-11-07T04:02:49.596Z,12.76
2022-11-07T04:05:52.439Z,12.80
2022-11-07T04:08:54.996Z,12.57
2022-11-07T04:12:16.539Z,12.37
2022-11-07T04:15:36.794Z,12.29
2022-11-07T04:18:39.443Z,12.34
2022-11-07T04:21:42.062Z,12.42
2022-11-07T04:24:46.258Z,12.41
2022-11-07T04:27:49.478Z,12.29
2022-11-07T04:30:52.047Z,12.23
2022-11-07T04:33:54.678Z,12.18
2022-11-07T04:36:57.311Z,12.18
2022-11-07T04:39:59.921Z,12.25
2022-11-07T04:43:08.988Z,12.31
2022-11-07T04:46:11.627Z,12.27
2022-11-07T04:49:15.243Z,12.05
2022-11-07T04:52:17.851Z,12.01
2022-11-07T04:55:22.005Z,11.92
2022-11-07T04:58:25.961Z,12.03
2022-11-07T05:01:28.541Z,12.03
2022-11-07T05:04:31.116Z,11.94
2022-11-07T05:07:33.703Z,11.79
2022-11-07T05:10:36.319Z,11.61
2022-11-07T05:13:40.285Z,11.51
2022-11-07T05:16:43.519Z,11.42
2022-11-07T05:19:47.771Z,11.16
2022-11-07T05:23:07.787Z,11.23
2022-11-07T05:26:10.692Z,11.37
2022-11-07T05:29:14.649Z,11.22
2022-11-07T05:32:17.602Z,11.02
2022-11-07T05:35:20.132Z,10.85
2022-11-07T05:38:22.767Z,10.79
2022-11-07T05:41:25.429Z,10.89
2022-11-07T05:44:29.410Z,11.08
2022-11-07T05:47:32.167Z,11.27
2022-11-07T05:50:34.816Z,11.39
2022-11-07T05:53:37.449Z,11.55
2022-11-07T05:56:40.884Z,11.63
2022-11-07T05:59:44.792Z,11.68
2022-11-07T06:02:55.294Z,11.67
2022-11-07T06:05:58.139Z,11.73
2022-11-07T06:09:00.772Z,11.85
2022-11-07T06:12:03.843Z,11.93
2022-11-07T06:15:09.159Z,11.99
2022-11-07T06:18:14.937Z,11.94
2022-11-07T06:21:18.229Z,11.77
2022-11-07T06:24:21.535Z,11.65
2022-11-07T06:27:24.513Z,11.66
2022-11-07T06:30:29.413Z,11.74
2022-11-07T06:33:32.504Z,11.85
2022-11-07T06:36:35.110Z,12.03
2022-11-07T06:39:37.727Z,12.26
2022-11-07T06:42:40.312Z,12.40
2022-11-07T06:45:45.550Z,12.50
2022-11-07T06:48:48.061Z,12.49
2022-11-07T06:51:50.769Z,12.57
2022-11-07T06:54:53.374Z,12.55
2022-11-07T06:57:59.424Z,12.50
2022-11-07T07:01:04.796Z,12.55
2022-11-07T07:04:07.630Z,12.58
2022-11-07T07:07:10.349Z,12.64
2022-11-07T07:10:13.258Z,12.69
2022-11-07T07:13:16.469Z,12.65
2022-11-07T07:16:20.682Z,12.66
2022-11-07T07:19:23.393Z,12.57
2022-11-07T07:22:26.523Z,12.45
2022-11-07T07:25:29.279Z,12.34
2022-11-07T07:28:32.136Z,12.29
2022-11-07T07:31:36.500Z,12.35
2022-11-07T07:34:39.250Z,12.41
2022-11-07T07:37:42.063Z,12.52
2022-11-07T07:40:44.836Z,12.63
2022-11-07T07:43:47.746Z,12.70
2022-11-07T07:46:51.792Z,12.83
2022-11-07T07:49:54.593Z,13.03
2022-11-07T07:52:57.934Z,13.30
2022-11-07T07:56:02.745Z,13.52
2022-11-07T07:59:05.437Z,13.81
2022-11-07T08:02:12.108Z,14.01
2022-11-07T08:05:16.128Z,14.22
2022-11-07T08:08:18.828Z,14.35
2022-11-07T08:11:21.670Z,14.54
2022-11-07T08:14:24.300Z,14.66
2022-11-07T08:17:28.314Z,14.79
2022-11-07T08:20:30.915Z,14.94
2022-11-07T08:23:33.509Z,15.02
2022-11-07T08:26:37.428Z,15.00
2022-11-07T08:29:40.009Z,15.09
2022-11-07T08:32:43.943Z,15.12
2022-11-07T08:35:46.537Z,14.87
2022-11-07T08:38:49.402Z,14.86
2022-11-07T08:41:52.492Z,14.90
2022-11-07T08:44:55.442Z,15.03
2022-11-07T08:47:59.760Z,15.29
2022-11-07T08:51:03.157Z,15.51
2022-11-07T08:54:06.083Z,15.83
2022-11-07T08:57:08.752Z,16.15
2022-11-07T09:00:12.841Z,16.25
2022-11-07T09:03:43.685Z,16.11
2022-11-07T09:06:39.917Z,16.03
2022-11-07T09:09:42.606Z,15.99
2022-11-07T09:12:46.014Z,16.04
2022-11-07T09:15:51.429Z,16.22
2022-11-07T09:18:56.090Z,16.34
2022-11-07T09:21:59.354Z,16.29
2022-11-07T09:25:02.344Z,16.42
2022-11-07T09:28:08.263Z,16.34
2022-11-07T09:31:11.709Z,16.46
2022-11-07T09:34:15.590Z,16.34
2022-11-07T09:37:18.480Z,16.45
2022-11-07T09:40:33.375Z,16.73
2022-11-07T09:43:57.664Z,16.91
2022-11-07T09:47:03.115Z,17.07
2022-11-07T09:50:13.483Z,17.00
2022-11-07T09:53:19.842Z,16.97
2022-11-07T09:56:22.718Z,16.78
2022-11-07T09:59:28.772Z,16.58
2022-11-07T10:02:33.328Z,16.75
2022-11-07T10:05:44.827Z,16.75
2022-11-07T10:08:51.941Z,16.98
2022-11-07T10:11:59.832Z,17.32
2022-11-07T10:15:05.735Z,17.44
2022-11-07T10:18:16.335Z,17.49
2022-11-07T10:21:37.498Z,17.58
2022-11-07T10:24:48.865Z,17.82
2022-11-07T10:27:55.164Z,18.02
2022-11-07T10:31:00.284Z,18.19
2022-11-07T10:34:05.336Z,18.03
2022-11-07T10:37:10.095Z,18.04
2022-11-07T10:40:15.972Z,18.11
2022-11-07T10:43:32.890Z,17.78
2022-11-07T10:46:39.387Z,17.49
2022-11-07T10:49:42.011Z,17.59
2022-11-07T10:52:53.480Z,17.91
2022-11-07T10:55:56.561Z,17.91
2022-11-07T10:58:59.339Z,17.65
2022-11-07T11:02:02.666Z,17.32
2022-11-07T11:05:05.793Z,17.09
2022-11-07T11:08:16.181Z,16.95
2022-11-07T11:11:28.382Z,17.26
2022-11-07T11:14:31.149Z,17.50
2022-11-07T11:17:34.335Z,17.75
2022-11-07T11:20:38.985Z,18.04
2022-11-07T11:23:45.880Z,18.20
2022-11-07T11:26:50.224Z,18.53
2022-11-07T11:29:57.484Z,18.85
2022-11-07T11:33:05.426Z,19.17
2022-11-07T11:36:12.130Z,19.67
2022-11-07T11:39:26.468Z,19.66
2022-11-07T11:42:33.706Z,19.27
2022-11-07T11:45:42.344Z,18.87
2022-11-07T11:48:46.359Z,18.69
2022-11-07T11:51:51.650Z,18.75
2022-11-07T11:54:57.704Z,18.63
2022-11-07T11:58:09.120Z,18.71
2022-11-07T12:01:19.727Z,18.72
2022-11-07T12:04:49.855Z,18.31
2022-11-07T12:07:59.362Z,18.52
2022-11-07T12:11:07.691Z,18.71
2022-11-07T12:14:28.141Z,18.90
2022-11-07T12:17:39.042Z,19.44
2022-11-07T12:20:47.289Z,19.07
2022-11-07T12:24:03.560Z,18.60
2022-11-07T12:27:14.457Z,18.01
2022-11-07T12:30:21.927Z,18.34
2022-11-07T12:33:31.271Z,19.34
2022-11-07T12:36:45.421Z,19.09
2022-11-07T12:39:55.671Z,19.19
2022-11-07T12:43:11.702Z,19.09
2022-11-07T12:46:18.253Z,19.32
2022-11-07T12:49:44.182Z,19.32
2022-11-07T12:52:56.821Z,19.26
2022-11-07T12:56:03.182Z,19.58
2022-11-07T12:59:12.193Z,19.47
2022-11-07T13:02:27.002Z,18.84
2022-11-07T13:05:39.441Z,18.56
2022-11-07T13:08:52.037Z,18.28
2022-11-07T13:11:58.395Z,18.23
2022-11-07T13:15:04.480Z,18.20
2022-11-07T13:18:15.755Z,18.11
2022-11-07T13:21:21.251Z,18.35
2022-11-07T13:24:23.926Z,19.10
2022-11-07T13:27:33.830Z,25.15
2022-11-07T13:30:39.983Z,22.92
2022-11-07T13:33:42.627Z,20.64
2022-11-07T13:36:46.335Z,19.49
2022-11-07T13:39:52.230Z,19.19
2022-11-07T13:42:56.488Z,20.04
2022-11-07T13:46:02.770Z,20.71
2022-11-07T13:49:08.039Z,20.84
2022-11-07T13:52:18.187Z,19.39
2022-11-07T13:55:23.734Z,18.98
2022-11-07T13:58:27.885Z,19.12
2022-11-07T14:01:43.532Z,18.67
2022-11-07T14:05:14.853Z,18.49
2022-11-07T14:08:20.385Z,19.05
2022-11-07T14:11:24.673Z,19.60
2022-11-07T14:14:28.690Z,20.02
2022-11-07T14:17:34.904Z,19.66
2022-11-07T14:20:37.866Z,19.20
2022-11-07T14:23:45.558Z,18.86
2022-11-07T14:26:59.035Z,18.74
2022-11-07T14:30:01.787Z,18.56
2022-11-07T14:33:06.948Z,18.33
2022-11-07T14:36:13.624Z,18.17
2022-11-07T14:39:16.967Z,17.98
2022-11-07T14:42:20.240Z,17.89
2022-11-07T14:45:47.117Z,17.74
2022-11-07T14:48:49.959Z,17.56
2022-11-07T14:51:53.378Z,17.40
2022-11-07T14:54:58.273Z,17.25
2022-11-07T14:58:01.954Z,17.14
2022-11-07T15:01:13.494Z,17.07
2022-11-07T15:04:27.942Z,16.95
2022-11-07T15:07:32.709Z,16.86
2022-11-07T15:10:39.495Z,16.82
2022-11-07T15:13:43.286Z,16.77
2022-11-07T15:16:48.373Z,16.72
2022-11-07T15:19:59.813Z,16.60
2022-11-07T15:23:04.324Z,16.44
2022-11-07T15:26:22.532Z,16.33
2022-11-07T15:29:25.166Z,16.26
2022-11-07T15:32:31.648Z,16.23
2022-11-07T15:35:44.018Z,16.17
2022-11-07T15:38:48.133Z,16.14
2022-11-07T15:41:50.816Z,16.08
2022-11-07T15:44:53.622Z,16.01
2022-11-07T15:47:56.440Z,15.91
2022-11-07T15:51:00.502Z,15.85
2022-11-07T15:54:03.420Z,15.79
2022-11-07T15:57:07.323Z,15.73
2022-11-07T16:00:15.545Z,15.63
2022-11-07T16:03:19.782Z,15.48
2022-11-07T16:06:27.553Z,15.36
2022-11-07T16:09:33.661Z,15.20
2022-11-07T16:12:36.344Z,15.06
2022-11-07T16:15:39.677Z,14.91
2022-11-07T16:18:44.556Z,14.61
2022-11-07T16:21:49.065Z,14.44
2022-11-07T16:24:51.735Z,14.27
2022-11-07T16:27:56.154Z,14.02
2022-11-07T16:30:59.060Z,13.77
2022-11-07T16:34:03.361Z,13.64
2022-11-07T16:37:07.458Z,13.64
2022-11-07T16:40:14.189Z,13.70
2022-11-07T16:43:17.607Z,13.68
2022-11-07T16:46:21.624Z,13.69
2022-11-07T16:49:29.329Z,13.63
2022-11-07T16:52:33.644Z,13.62
2022-11-07T16:55:37.068Z,13.59
2022-11-07T16:58:39.942Z,13.52
2022-11-07T17:01:42.652Z,13.52
2022-11-07T17:04:45.401Z,13.46
2022-11-07T17:07:50.571Z,13.45
2022-11-07T17:10:53.419Z,13.31
2022-11-07T17:13:56.111Z,13.23
2022-11-07T17:17:04.464Z,13.21
2022-11-07T17:20:08.547Z,13.12
2022-11-07T17:23:12.646Z,12.97
2022-11-07T17:26:16.216Z,12.86
2022-11-07T17:29:18.768Z,12.97
2022-11-07T17:32:21.565Z,12.94
2022-11-07T17:35:32.009Z,13.02
2022-11-07T17:38:36.344Z,13.12
2022-11-07T17:41:39.587Z,13.19
2022-11-07T17:44:43.214Z,13.18
2022-11-07T17:47:45.635Z,13.11
2022-11-07T17:50:48.291Z,13.05
2022-11-07T17:53:52.521Z,13.00
2022-11-07T17:56:55.105Z,12.87
2022-11-07T17:59:57.877Z,12.81
2022-11-07T18:03:00.629Z,12.61
2022-11-07T18:06:03.263Z,12.44
2022-11-07T18:09:08.931Z,12.32
2022-11-07T18:12:12.149Z,12.27
2022-11-07T18:15:14.720Z,12.30
2022-11-07T18:18:17.486Z,12.31
2022-11-07T18:21:20.630Z,12.42
2022-11-07T18:24:24.905Z,12.48
2022-11-07T18:27:27.677Z,12.57
2022-11-07T18:30:30.980Z,12.51
2022-11-07T18:33:33.961Z,12.40
2022-11-07T18:36:38.225Z,12.32
2022-11-07T18:39:42.200Z,12.20
2022-11-07T18:42:45.534Z,11.99
2022-11-07T18:45:48.526Z,11.87
2022-11-07T18:48:51.733Z,11.67
2022-11-07T18:51:54.497Z,11.76
2022-11-07T18:54:58.898Z,11.70
2022-11-07T18:58:01.629Z,11.73
2022-11-07T19:01:06.588Z,11.59
2022-11-07T19:04:11.392Z,11.55
2022-11-07T19:07:13.976Z,11.42
2022-11-07T19:10:18.208Z,11.35
2022-11-07T19:13:20.754Z,11.36
2022-11-07T19:16:23.670Z,11.39
2022-11-07T19:19:26.571Z,11.31
2022-11-07T19:22:29.331Z,11.22
2022-11-07T19:25:33.335Z,11.25
2022-11-07T19:28:37.184Z,11.22
2022-11-07T19:31:39.944Z,11.19
2022-11-07T19:34:42.546Z,11.21
2022-11-07T19:37:45.110Z,11.14
2022-11-07T19:40:50.529Z,11.03
2022-11-07T19:43:53.119Z,10.95
2022-11-07T19:46:55.819Z,10.83
2022-11-07T19:49:58.634Z,10.71
2022-11-07T19:53:01.288Z,10.59
2022-11-07T19:56:09.930Z,10.51
2022-11-07T19:59:12.489Z,10.35
2022-11-07T20:02:32.422Z,10.23
2022-11-07T20:05:39.488Z,10.12
2022-11-07T20:08:43.270Z,10.08
2022-11-07T20:11:49.001Z,10.11
2022-11-07T20:14:51.603Z,10.10
2022-11-07T20:17:54.203Z,10.00
2022-11-07T20:21:04.103Z,9.97
2022-11-07T20:24:09.125Z,9.96
2022-11-07T20:27:13.554Z,9.89
2022-11-07T20:30:16.165Z,9.88
2022-11-07T20:33:19.022Z,9.94
2022-11-07T20:36:22.174Z,9.96
2022-11-07T20:39:24.869Z,10.00
2022-11-07T20:42:28.796Z,10.04
2022-11-07T20:45:31.655Z,10.05
2022-11-07T20:48:34.721Z,9.99
2022-11-07T20:51:37.546Z,9.93
2022-11-07T20:54:40.206Z,9.96
2022-11-07T20:57:44.497Z,9.77
2022-11-07T21:00:47.222Z,9.62
2022-11-07T21:03:50.077Z,9.51
2022-11-07T21:06:52.672Z,9.53
2022-11-07T21:09:55.286Z,9.48
2022-11-07T21:12:59.193Z,9.55
2022-11-07T21:16:01.929Z,9.56
2022-11-07T21:19:05.073Z,9.62
2022-11-07T21:22:07.656Z,9.58
2022-11-07T21:25:10.607Z,9.55
2022-11-07T21:28:17.304Z,9.44
2022-11-07T21:31:23.856Z,9.26
2022-11-07T21:34:26.440Z,9.17
2022-11-07T21:37:29.159Z,9.11
2022-11-07T21:40:31.735Z,9.03
2022-11-07T21:43:35.616Z,9.00
2022-11-07T21:46:38.240Z,8.92
2022-11-07T21:49:40.872Z,8.85
2022-11-07T21:52:43.474Z,8.82
2022-11-07T21:55:46.064Z,8.90
2022-11-07T21:58:50.973Z,8.94
2022-11-07T22:01:55.220Z,8.89
2022-11-07T22:04:57.978Z,8.86
2022-11-07T22:08:00.779Z,8.76
2022-11-07T22:11:03.532Z,8.65
2022-11-07T22:14:07.443Z,8.60
2022-11-07T22:17:10.193Z,8.57
2022-11-07T22:20:13.642Z,8.59
2022-11-07T22:23:16.528Z,8.63
2022-11-07T22:26:21.070Z,8.75
2022-11-07T22:29:25.002Z,8.67
2022-11-07T22:32:27.640Z,8.59
2022-11-07T22:35:30.387Z,8.55
2022-11-07T22:38:33.845Z,8.48
2022-11-07T22:41:36.634Z,8.45
2022-11-07T22:44:40.540Z,8.37
2022-11-07T22:47:43.092Z,8.30
2022-11-07T22:50:46.048Z,8.29
2022-11-07T22:53:48.703Z,8.32
2022-11-07T22:56:51.244Z,8.32
2022-11-07T22:59:55.209Z,8.34
2022-11-07T23:02:57.977Z,8.36
2022-11-07T23:06:03.803Z,8.29
2022-11-07T23:09:06.367Z,8.28
2022-11-07T23:12:09.049Z,8.20
2022-11-07T23:15:13.279Z,8.14
2022-11-07T23:18:16.373Z,8.10
2022-11-07T23:21:19.539Z,8.04
2022-11-07T23:24:22.165Z,8.04
2022-11-07T23:27:24.955Z,8.03
2022-11-07T23:30:30.223Z,8.11
2022-11-07T23:33:34.250Z,8.07
2022-11-07T23:36:37.035Z,8.12
2022-11-07T23:39:39.601Z,8.13
2022-11-07T23:42:42.600Z,8.05
2022-11-07T23:46:04.087Z,8.03
2022-11-07T23:49:24.577Z,7.96
2022-11-07T23:52:27.303Z,7.94
2022-11-07T23:55:41.263Z,7.90
2022-11-07T23:59:01.217Z,7.82
